createdAt,value
2018-02-03T20:11:16.080Z,995.3
2018-02-03T20:12:17.456Z,995.3
2018-02-03T20:13:48.321Z,995.3
2018-02-03T20:14:49.685Z,995.3
2018-02-03T20:16:20.521Z,995.3
2018-02-03T20:17:21.890Z,995.3
2018-02-03T20:18:52.759Z,995.3
2018-02-03T20:19:54.120Z,995.3
2018-02-03T20:21:15.667Z,995.3
2018-02-03T20:22:16.999Z,995.3
2018-02-03T20:23:47.879Z,995.3
2018-02-03T20:24:49.255Z,995.3
2018-02-03T20:26:20.164Z,995.4
2018-02-03T20:27:21.547Z,995.4
2018-02-03T20:28:52.426Z,995.4
2018-02-03T20:29:53.810Z,995.4
2018-02-03T20:31:14.587Z,995.4
2018-02-03T20:32:15.960Z,995.4
2018-02-03T20:33:46.784Z,995.4
2018-02-03T20:34:48.189Z,995.4
2018-02-03T20:36:18.998Z,995.5
2018-02-03T20:37:20.374Z,995.5
2018-02-03T20:38:51.155Z,995.4
2018-02-03T20:39:52.564Z,995.5
2018-02-03T20:41:13.348Z,995.5
2018-02-03T20:42:14.713Z,995.5
2018-02-03T20:43:45.572Z,995.5
2018-02-03T20:44:46.948Z,995.5
2018-02-03T20:46:07.897Z,995.5
2018-02-03T20:47:09.281Z,995.5
2018-02-03T20:48:40.076Z,995.5
2018-02-03T20:49:41.452Z,995.6
2018-02-03T20:51:02.179Z,995.6
2018-02-03T20:52:03.550Z,995.6
2018-02-03T20:53:35.087Z,995.6
2018-02-03T20:54:36.450Z,995.6
2018-02-03T20:56:07.280Z,995.6
2018-02-03T20:57:08.656Z,995.6
2018-02-03T20:58:39.490Z,995.6
2018-02-03T20:59:40.869Z,995.6
2018-02-03T21:01:01.600Z,995.7
2018-02-03T21:02:03.033Z,995.6
2018-02-03T21:03:33.907Z,995.6
2018-02-03T21:04:35.310Z,995.7
2018-02-03T21:06:06.098Z,995.7
2018-02-03T21:07:07.477Z,995.7
2018-02-03T21:08:38.990Z,995.7
2018-02-03T21:09:40.352Z,995.7
2018-02-03T21:11:01.078Z,995.8
2018-02-03T21:12:02.992Z,995.8
2018-02-03T21:13:34.510Z,995.8
2018-02-03T21:14:35.895Z,995.8
2018-02-03T21:16:06.735Z,995.8
2018-02-03T21:17:08.097Z,995.8
2018-02-03T21:18:38.935Z,995.9
2018-02-03T21:19:40.305Z,995.9
2018-02-03T21:21:01.030Z,995.9
2018-02-03T21:22:02.402Z,995.9
2018-02-03T21:23:33.197Z,995.9
2018-02-03T21:24:34.566Z,995.9
2018-02-03T21:26:06.091Z,995.9
2018-02-03T21:27:07.465Z,995.9
2018-02-03T21:28:38.318Z,995.9
2018-02-03T21:29:39.671Z,995.9
2018-02-03T21:31:00.399Z,995.9
2018-02-03T21:32:01.779Z,996.0
2018-02-03T21:33:32.607Z,995.9
2018-02-03T21:34:33.986Z,996.0
2018-02-03T21:36:04.784Z,995.9
2018-02-03T21:37:06.162Z,996.0
2018-02-03T21:38:37.679Z,995.9
2018-02-03T21:39:39.048Z,996.0
2018-02-03T21:40:59.800Z,996.0
2018-02-03T21:42:01.182Z,996.0
2018-02-03T21:43:32.009Z,996.0
2018-02-03T21:44:33.373Z,996.0
2018-02-03T21:46:04.259Z,996.0
2018-02-03T21:47:05.602Z,996.0
2018-02-03T21:48:36.387Z,996.0
2018-02-03T21:49:37.755Z,996.0
2018-02-03T21:50:58.495Z,996.0
2018-02-03T21:52:00.811Z,996.1
2018-02-03T21:53:31.611Z,996.1
2018-02-03T21:54:32.980Z,996.1
2018-02-03T21:56:03.783Z,996.1
